Search flights

Kanab Mun Airport, Kanab (KKNB)

Airport Weather & NOTAM's

METAR for:KKNB (Kanab Muni, UT, US)
Text:KKNB 240835Z AUTO 00000KT 10SM CLR 20/19 A3031 RMK A01
Conditions at:0835 UTC 24 Jul 2024
Temperature: 20.0°C ( 68°F)
Dewpoint: 19.0°C ( 66°F) [RH = 94%]
Pressure (altimeter):30.31 inches Hg (1026.5 mb)
Winds:calm
Visibility:10 or more sm (16+ km)
Ceiling:at least 12,000 feet AGL
Clouds:sky clear below 12,000 feet AGL
QC Flag:automated observation with no human augmentation

Live Departures & Arrivals

There are currently no arrivals or departures for this airport.

Departures History (last 12 months)

No departure history to display.

Arrivals History (last 12 months)

Flight No. Origin Aircraft Date
SIC0904 KNLC LEARJET 35... 2024-05-31 22:48:03
SIC0748 KNLC LEARJET 35... 2024-05-31 22:54:00
SIC0103 KNLC PMDG 737-8... 2024-05-31 22:56:57

Runway Information (Airport elevation: 4,868ft)

Runway 01 Length 6,195ft Width 70ft Elevation 4,845ft Surface Bituminous Heading 21
Runway 19 Length 6,195ft Width 70ft Elevation 4,845ft Surface Bituminous Heading 201

Airport Frequencies

Type APP/DEP Frequency 124.200 Mhz
Type AWOS Frequency 133.175 Mhz
Type D Frequency 124.200 Mhz
Type UC Frequency 122.800 Mhz
Type AWOS Frequency 133.175 Mhz
Type CTR Frequency 124.200 Mhz
Type UC Frequency 122.800 Mhz

Airport Navaids

No navaids to display.